sensor_id;sensor_type;location;lat;lon;timestamp;pressure;altitude;pressure_sealevel;temperature;humidity
47220;BME280;32961;51.936;4.788;2024-02-21T00:01:04;102091.63;;;8.79;100.00
47220;BME280;32961;51.936;4.788;2024-02-21T00:03:33;102092.50;;;8.79;100.00
47220;BME280;32961;51.936;4.788;2024-02-21T00:06:00;102077.22;;;8.78;100.00
47220;BME280;32961;51.936;4.788;2024-02-21T00:08:28;102082.63;;;8.78;100.00
47220;BME280;32961;51.936;4.788;2024-02-21T00:10:58;102065.50;;;8.78;100.00
47220;BME280;32961;51.936;4.788;2024-02-21T00:13:26;102065.50;;;8.78;100.00
47220;BME280;32961;51.936;4.788;2024-02-21T00:15:54;102066.38;;;8.78;100.00
47220;BME280;32961;51.936;4.788;2024-02-21T00:18:22;102063.78;;;8.77;100.00
47220;BME280;32961;51.936;4.788;2024-02-21T00:20:55;102059.44;;;8.74;100.00
47220;BME280;32961;51.936;4.788;2024-02-21T00:23:23;102059.22;;;8.77;100.00
47220;BME280;32961;51.936;4.788;2024-02-21T00:25:51;102049.34;;;8.76;100.00
47220;BME280;32961;51.936;4.788;2024-02-21T00:28:20;102056.63;;;8.76;100.00
47220;BME280;32961;51.936;4.788;2024-02-21T00:30:48;102056.72;;;8.74;100.00
47220;BME280;32961;51.936;4.788;2024-02-21T00:33:19;102054.88;;;8.75;100.00
47220;BME280;32961;51.936;4.788;2024-02-21T00:35:47;102050.31;;;8.75;100.00
47220;BME280;32961;51.936;4.788;2024-02-21T00:38:15;102040.47;;;8.74;100.00
47220;BME280;32961;51.936;4.788;2024-02-21T00:40:43;102053.25;;;8.72;100.00
47220;BME280;32961;51.936;4.788;2024-02-21T00:43:11;102052.28;;;8.73;100.00
47220;BME280;32961;51.936;4.788;2024-02-21T00:45:40;102061.38;;;8.72;100.00
47220;BME280;32961;51.936;4.788;2024-02-21T00:48:08;102062.44;;;8.70;100.00
47220;BME280;32961;51.936;4.788;2024-02-21T00:50:36;102056.91;;;8.71;100.00
47220;BME280;32961;51.936;4.788;2024-02-21T00:53:05;102067.75;;;8.71;100.00
47220;BME280;32961;51.936;4.788;2024-02-21T00:55:32;102075.03;;;8.71;100.00
47220;BME280;32961;51.936;4.788;2024-02-21T00:58:00;102071.44;;;8.70;100.00
47220;BME280;32961;51.936;4.788;2024-02-21T01:00:28;102067.19;;;8.66;100.00
47220;BME280;32961;51.936;4.788;2024-02-21T01:02:57;102067.19;;;8.66;100.00
47220;BME280;32961;51.936;4.788;2024-02-21T01:05:25;102057.22;;;8.66;100.00
47220;BME280;32961;51.936;4.788;2024-02-21T01:07:54;102060.69;;;8.69;100.00
47220;BME280;32961;51.936;4.788;2024-02-21T01:10:22;102046.25;;;8.68;100.00
47220;BME280;32961;51.936;4.788;2024-02-21T01:12:50;102035.53;;;8.66;100.00
47220;BME280;32961;51.936;4.788;2024-02-21T01:15:18;102034.47;;;8.69;100.00
47220;BME280;32961;51.936;4.788;2024-02-21T01:17:47;102035.44;;;8.68;100.00
47220;BME280;32961;51.936;4.788;2024-02-21T01:20:17;102025.25;;;8.72;100.00
47220;BME280;32961;51.936;4.788;2024-02-21T01:22:45;102023.31;;;8.74;100.00
47220;BME280;32961;51.936;4.788;2024-02-21T01:25:13;102028.84;;;8.72;100.00
47220;BME280;32961;51.936;4.788;2024-02-21T01:27:41;102027.97;;;8.72;100.00
47220;BME280;32961;51.936;4.788;2024-02-21T01:30:10;102023.63;;;8.69;100.00
47220;BME280;32961;51.936;4.788;2024-02-21T01:32:38;102025.47;;;8.69;100.00
47220;BME280;32961;51.936;4.788;2024-02-21T01:35:07;102023.63;;;8.69;100.00
47220;BME280;32961;51.936;4.788;2024-02-21T01:37:36;102015.50;;;8.69;100.00
47220;BME280;32961;51.936;4.788;2024-02-21T01:40:05;102012.78;;;8.69;100.00
47220;BME280;32961;51.936;4.788;2024-02-21T01:42:38;102008.03;;;8.73;100.00
47220;BME280;32961;51.936;4.788;2024-02-21T01:45:06;102007.06;;;8.74;100.00
47220;BME280;32961;51.936;4.788;2024-02-21T01:47:34;101999.91;;;8.73;100.00
47220;BME280;32961;51.936;4.788;2024-02-21T01:50:03;102004.34;;;8.74;100.00
47220;BME280;32961;51.936;4.788;2024-02-21T01:52:31;102009.88;;;8.72;100.00
47220;BME280;32961;51.936;4.788;2024-02-21T01:55:03;102007.16;;;8.72;100.00
47220;BME280;32961;51.936;4.788;2024-02-21T01:57:31;102003.56;;;8.72;100.00
47220;BME280;32961;51.936;4.788;2024-02-21T01:59:59;101993.75;;;8.71;100.00
47220;BME280;32961;51.936;4.788;2024-02-21T02:02:27;101997.31;;;8.71;100.00
47220;BME280;32961;51.936;4.788;2024-02-21T02:04:56;101997.19;;;8.73;100.00
47220;BME280;32961;51.936;4.788;2024-02-21T02:07:24;101997.09;;;8.74;100.00
47220;BME280;32961;51.936;4.788;2024-02-21T02:09:52;101993.50;;;8.74;100.00
47220;BME280;32961;51.936;4.788;2024-02-21T02:12:21;101977.56;;;8.69;100.00
47220;BME280;32961;51.936;4.788;2024-02-21T02:14:57;101979.97;;;8.74;100.00
47220;BME280;32961;51.936;4.788;2024-02-21T02:17:25;101969.13;;;8.74;100.00
47220;BME280;32961;51.936;4.788;2024-02-21T02:19:53;101980.94;;;8.73;100.00
47220;BME280;32961;51.936;4.788;2024-02-21T02:22:23;101973.69;;;8.73;100.00
47220;BME280;32961;51.936;4.788;2024-02-21T02:24:54;101971.16;;;8.70;100.00
47220;BME280;32961;51.936;4.788;2024-02-21T02:27:22;101965.75;;;8.70;100.00
47220;BME280;32961;51.936;4.788;2024-02-21T02:29:50;101967.59;;;8.70;100.00
47220;BME280;32961;51.936;4.788;2024-02-21T02:32:19;101970.19;;;8.71;100.00
47220;BME280;32961;51.936;4.788;2024-02-21T02:34:47;101970.19;;;8.71;100.00
47220;BME280;32961;51.936;4.788;2024-02-21T02:37:15;101965.75;;;8.70;100.00
47220;BME280;32961;51.936;4.788;2024-02-21T02:39:42;101958.81;;;8.66;100.00
47220;BME280;32961;51.936;4.788;2024-02-21T02:42:12;101956.97;;;8.66;100.00
47220;BME280;32961;51.936;4.788;2024-02-21T02:44:39;101955.34;;;8.64;100.00
47220;BME280;32961;51.936;4.788;2024-02-21T02:47:08;101956.31;;;8.63;100.00
47220;BME280;32961;51.936;4.788;2024-02-21T02:49:36;101950.81;;;8.64;100.00
47220;BME280;32961;51.936;4.788;2024-02-21T02:52:04;101945.38;;;8.64;100.00
47220;BME280;32961;51.936;4.788;2024-02-21T02:54:32;101948.72;;;8.68;100.00
47220;BME280;32961;51.936;4.788;2024-02-21T02:57:00;101947.09;;;8.65;100.00
47220;BME280;32961;51.936;4.788;2024-02-21T02:59:31;101930.09;;;8.63;100.00
47220;BME280;32961;51.936;4.788;2024-02-21T03:01:59;101928.34;;;8.62;100.00
47220;BME280;32961;51.936;4.788;2024-02-21T03:04:27;101926.50;;;8.63;100.00
47220;BME280;32961;51.936;4.788;2024-02-21T03:06:55;101920.22;;;8.62;100.00
47220;BME280;32961;51.936;4.788;2024-02-21T03:09:22;101913.19;;;8.60;100.00
47220;BME280;32961;51.936;4.788;2024-02-21T03:11:50;101909.59;;;8.59;100.00
47220;BME280;32961;51.936;4.788;2024-02-21T03:14:19;101906.88;;;8.59;100.00
47220;BME280;32961;51.936;4.788;2024-02-21T03:16:48;101909.59;;;8.59;100.00
47220;BME280;32961;51.936;4.788;2024-02-21T03:19:18;101907.75;;;8.60;100.00
47220;BME280;32961;51.936;4.788;2024-02-21T03:21:46;101899.63;;;8.60;100.00
47220;BME280;32961;51.936;4.788;2024-02-21T03:24:14;101903.31;;;8.59;100.00
47220;BME280;32961;51.936;4.788;2024-02-21T03:26:42;101897.13;;;8.57;100.00
47220;BME280;32961;51.936;4.788;2024-02-21T03:29:10;101893.34;;;8.59;100.00
47220;BME280;32961;51.936;4.788;2024-02-21T03:31:38;101888.81;;;8.60;100.00
47220;BME280;32961;51.936;4.788;2024-02-21T03:34:10;101880.66;;;8.60;100.00
47220;BME280;32961;51.936;4.788;2024-02-21T03:36:38;101880.75;;;8.58;100.00
47220;BME280;32961;51.936;4.788;2024-02-21T03:39:06;101885.19;;;8.59;100.00
47220;BME280;32961;51.936;4.788;2024-02-21T03:41:35;101877.19;;;8.58;100.00
47220;BME280;32961;51.936;4.788;2024-02-21T03:44:03;101879.91;;;8.58;100.00
47220;BME280;32961;51.936;4.788;2024-02-21T03:46:31;101875.25;;;8.60;100.00
47220;BME280;32961;51.936;4.788;2024-02-21T03:48:59;101873.41;;;8.60;100.00
47220;BME280;32961;51.936;4.788;2024-02-21T03:51:29;101874.47;;;8.58;100.00
47220;BME280;32961;51.936;4.788;2024-02-21T03:53:57;101876.34;;;8.57;100.00
47220;BME280;32961;51.936;4.788;2024-02-21T03:56:24;101872.97;;;8.54;100.00
47220;BME280;32961;51.936;4.788;2024-02-21T03:58:52;101878.28;;;8.55;100.00
47220;BME280;32961;51.936;4.788;2024-02-21T04:01:20;101873.81;;;8.54;100.00
47220;BME280;32961;51.936;4.788;2024-02-21T04:03:48;101870.03;;;8.57;100.00
47220;BME280;32961;51.936;4.788;2024-02-21T04:06:16;101864.63;;;8.57;100.00
47220;BME280;32961;51.936;4.788;2024-02-21T04:08:45;101853.78;;;8.57;100.00
47220;BME280;32961;51.936;4.788;2024-02-21T04:11:13;101851.97;;;8.57;100.00
47220;BME280;32961;51.936;4.788;2024-02-21T04:13:41;101856.50;;;8.57;100.00
47220;BME280;32961;51.936;4.788;2024-02-21T04:16:09;101863.88;;;8.55;100.00
47220;BME280;32961;51.936;4.788;2024-02-21T04:18:37;101863.88;;;8.55;100.00
47220;BME280;32961;51.936;4.788;2024-02-21T04:21:05;101870.16;;;8.55;100.00
47220;BME280;32961;51.936;4.788;2024-02-21T04:23:33;101867.31;;;8.57;100.00
